Time;durP1;ratioP1;P1;durP2;ratioP2;P2;SDS_P1;SDS_P2;PMS_P1;PMS_P2;Temp;Humidity;BMP_temperature;BMP_pressure;BME280_temperature;BME280_humidity;BME280_pressure;Samples;Min_cycle;Max_cycle;Signal;HPM_P1;HPM_P2
2023/05/16 00:01:43;;;;;;;0.25;0.25;;;;;;;25.87;30.31;100651.06;7393913;19;20018;-61
2023/05/16 00:04:10;;;;;;;2.05;0.40;;;;;;;25.82;30.73;100654.06;7395242;19;20021;-61
2023/05/16 00:06:36;;;;;;;2.85;1.10;;;;;;;25.79;30.68;100652.38;7392217;19;20014;-61
2023/05/16 00:09:02;;;;;;;0.40;0.40;;;;;;;25.46;30.76;100657.69;7396518;19;20010;-61
2023/05/16 00:11:29;;;;;;;0.75;0.75;;;;;;;25.41;30.89;100655.72;7400484;19;20475;-61
2023/05/16 00:13:56;;;;;;;0.30;0.30;;;;;;;25.38;31.16;100650.38;7398705;19;20010;-61
2023/05/16 00:16:24;;;;;;;0.40;0.40;;;;;;;25.66;31.20;100652.47;7403692;19;20014;-61
2023/05/16 00:18:51;;;;;;;1.17;0.75;;;;;;;25.70;31.03;100650.78;7398815;19;20019;-61
2023/05/16 00:21:17;;;;;;;0.38;0.38;;;;;;;25.80;30.79;100648.16;7396647;19;20090;-62
2023/05/16 00:23:43;;;;;;;0.55;0.55;;;;;;;25.87;30.79;100653.94;7398311;19;20038;-61
2023/05/16 00:26:10;;;;;;;1.05;0.70;;;;;;;25.77;31.05;100646.47;7404569;19;20014;-61
2023/05/16 00:28:38;;;;;;;1.88;0.50;;;;;;;25.77;30.81;100640.75;7398699;19;20014;-61
2023/05/16 00:31:04;;;;;;;0.40;0.40;;;;;;;25.77;30.99;100652.16;7399322;19;20038;-61
2023/05/16 00:33:30;;;;;;;0.47;0.43;;;;;;;25.79;30.59;100652.38;7401534;19;20019;-62
2023/05/16 00:35:57;;;;;;;0.35;0.35;;;;;;;25.77;30.98;100652.16;7402384;19;20014;-62
2023/05/16 00:38:25;;;;;;;0.60;0.60;;;;;;;25.87;30.79;100647.44;7398227;19;20011;-62
2023/05/16 00:40:51;;;;;;;3.90;1.25;;;;;;;26.02;30.95;100650.38;7397700;19;20022;-62
2023/05/16 00:43:17;;;;;;;3.15;0.50;;;;;;;26.02;30.95;100644.66;7398153;19;20042;-62
2023/05/16 00:45:44;;;;;;;7.88;0.85;;;;;;;25.97;31.37;100642.72;7401324;19;20032;-62
2023/05/16 00:48:14;;;;;;;4.00;0.68;;;;;;;26.10;30.82;100645.47;7398815;19;20010;-62
2023/05/16 00:50:41;;;;;;;0.77;0.77;;;;;;;26.03;31.07;100643.34;7399263;19;20021;-61
2023/05/16 00:53:07;;;;;;;0.28;0.28;;;;;;;25.96;31.57;100644.84;7396847;19;20018;-61
2023/05/16 00:55:37;;;;;;;0.22;0.22;;;;;;;25.91;31.72;100647.84;7399679;19;20022;-62
2023/05/16 00:58:04;;;;;;;22.67;0.88;;;;;;;26.43;31.24;100638.75;7399486;19;20018;-62
2023/05/16 01:00:31;;;;;;;6.18;1.00;;;;;;;27.10;30.33;100630.81;7399330;19;20015;-62
2023/05/16 01:02:57;;;;;;;0.60;0.60;;;;;;;26.78;30.90;100640.75;7402540;19;20066;-62
2023/05/16 01:05:24;;;;;;;0.73;0.73;;;;;;;26.73;30.69;100641.69;7399968;19;20007;-62
2023/05/16 01:07:50;;;;;;;0.50;0.50;;;;;;;26.97;30.36;100646.84;7397677;19;20070;-62
2023/05/16 01:10:16;;;;;;;0.30;0.30;;;;;;;26.88;30.46;100644.53;7399167;19;20018;-62
2023/05/16 01:12:55;;;;;;;0.32;0.32;;;;;;;26.72;30.68;100648.72;7397137;19;20007;-62
2023/05/16 01:15:27;;;;;;;0.50;0.50;;;;;;;26.72;30.41;100647.94;7399616;19;20017;-62
2023/05/16 01:18:15;;;;;;;0.60;0.60;;;;;;;26.63;30.37;100640.69;7397348;19;20014;-62
2023/05/16 01:20:48;;;;;;;0.50;0.50;;;;;;;26.61;29.87;100649.06;7393375;19;20019;-61
2023/05/16 01:23:25;;;;;;;0.20;0.20;;;;;;;26.51;30.02;100650.94;7395915;19;20383;-61
2023/05/16 01:26:26;;;;;;;1.42;0.82;;;;;;;26.42;30.32;100654.38;7399692;19;20056;-62
2023/05/16 01:28:53;;;;;;;17.10;0.80;;;;;;;26.37;30.17;100655.28;7396855;19;20031;-61
2023/05/16 01:31:21;;;;;;;0.52;0.52;;;;;;;26.28;29.89;100650.13;7397975;19;20481;-61
2023/05/16 01:33:47;;;;;;;0.20;0.20;;;;;;;26.15;29.82;100647.41;7398079;19;20367;-62
2023/05/16 01:36:30;;;;;;;0.30;0.30;;;;;;;25.83;30.52;100649.91;7401822;19;20640;-62
2023/05/16 01:39:34;;;;;;;10.80;1.92;;;;;;;25.85;30.36;100647.25;7397706;19;20014;-62
2023/05/16 01:42:07;;;;;;;2.40;0.98;;;;;;;26.08;30.22;100636.69;7395649;19;20014;-63
2023/05/16 01:44:39;;;;;;;0.68;0.68;;;;;;;26.12;30.06;100645.66;7398748;19;20078;-62
2023/05/16 01:47:10;;;;;;;0.82;0.60;;;;;;;25.76;30.29;100647.78;7396429;19;20006;-62
2023/05/16 01:49:46;;;;;;;;;;;;;;;26.03;29.98;100646.19;7396787;19;20466;-61
2023/05/16 01:52:30;;;;;;;0.47;0.47;;;;;;;25.50;30.30;100645.91;7396058;19;20359;-62
2023/05/16 01:54:58;;;;;;;1.10;0.65;;;;;;;25.58;30.51;100638.94;7397041;19;20025;-62
2023/05/16 01:57:27;;;;;;;0.40;0.40;;;;;;;26.20;29.43;100647.25;7397074;19;20532;-62
2023/05/16 01:59:53;;;;;;;8.20;1.48;;;;;;;26.21;29.63;100653.72;7395581;19;20021;-62
2023/05/16 02:02:20;;;;;;;0.70;0.70;;;;;;;26.39;29.57;100649.78;7397537;19;20523;-62
2023/05/16 02:04:46;;;;;;;0.40;0.40;;;;;;;26.42;29.17;100642.94;7397252;19;20074;-62
2023/05/16 02:07:15;;;;;;;2.80;0.80;;;;;;;24.18;30.75;100641.41;7391724;19;20015;-62
2023/05/16 02:09:41;;;;;;;0.57;0.57;;;;;;;26.32;29.45;100636.22;7393850;19;20030;-62
2023/05/16 02:12:07;;;;;;;0.40;0.40;;;;;;;26.28;28.91;100638.69;7395521;19;20010;-62
2023/05/16 02:14:33;;;;;;;6.03;1.27;;;;;;;26.63;28.99;100634.97;7392446;19;20007;-62
2023/05/16 02:16:59;;;;;;;0.65;0.60;;;;;;;26.63;28.42;100637.84;7394803;19;20366;-62
2023/05/16 02:19:25;;;;;;;0.40;0.40;;;;;;;26.49;28.71;100642.16;7395655;19;20011;-62
2023/05/16 02:21:52;;;;;;;0.60;0.45;;;;;;;26.17;28.99;100633.31;7396416;19;20011;-62
2023/05/16 02:24:18;;;;;;;0.63;0.63;;;;;;;26.18;29.28;100638.47;7396175;19;20030;-61
2023/05/16 02:26:44;;;;;;;0.35;0.35;;;;;;;26.09;29.59;100635.41;7395644;19;20451;-62
2023/05/16 02:29:10;;;;;;;0.52;0.52;;;;;;;26.35;29.06;100632.25;7392475;19;20027;-62
2023/05/16 02:31:36;;;;;;;0.50;0.50;;;;;;;26.35;28.92;100637.97;7396097;19;20428;-62
2023/05/16 02:34:02;;;;;;;0.22;0.22;;;;;;;26.32;28.98;100630.50;7397596;19;20010;-61
2023/05/16 02:36:29;;;;;;;0.28;0.28;;;;;;;26.36;28.98;100633.03;7393195;19;20014;-62
2023/05/16 02:38:55;;;;;;;0.47;0.47;;;;;;;26.48;28.52;100634.94;7395320;19;20451;-63
2023/05/16 02:41:22;;;;;;;0.50;0.50;;;;;;;26.36;28.50;100633.75;7393626;19;20039;-62
2023/05/16 02:43:48;;;;;;;8.20;1.10;;;;;;;26.52;28.59;100632.47;7394400;19;20015;-62
2023/05/16 02:46:29;;;;;;;0.45;0.45;;;;;;;26.60;28.41;100630.38;7395548;19;20236;-62
2023/05/16 02:48:56;;;;;;;0.55;0.55;;;;;;;26.41;28.70;100632.84;7394819;19;20015;-62
2023/05/16 02:51:24;;;;;;;10.48;1.33;;;;;;;26.42;28.79;100630.75;7396175;19;20015;-62
2023/05/16 02:53:51;;;;;;;0.52;0.52;;;;;;;26.39;28.26;100632.63;7395623;19;20037;-62
2023/05/16 02:56:18;;;;;;;0.65;0.65;;;;;;;26.21;28.57;100637.34;7393408;19;20022;-62
2023/05/16 02:58:47;;;;;;;0.50;0.50;;;;;;;25.73;28.87;100632.53;7394390;19;20007;-62
2023/05/16 03:01:14;;;;;;;0.65;0.65;;;;;;;25.53;29.09;100628.44;7395230;19;20459;-62
2023/05/16 03:03:41;;;;;;;1.20;0.63;;;;;;;25.67;28.61;100631.94;7395923;19;20085;-62
2023/05/16 03:06:07;;;;;;;0.80;0.80;;;;;;;25.73;29.05;100623.97;7393657;19;20018;-62
2023/05/16 03:08:34;;;;;;;1.88;0.63;;;;;;;25.55;28.74;100631.47;7394463;19;20018;-62
2023/05/16 03:11:00;;;;;;;0.57;0.57;;;;;;;25.72;28.72;100633.88;7395228;19;20462;-61
2023/05/16 03:13:28;;;;;;;2.72;1.15;;;;;;;25.87;28.74;100636.81;7396311;19;20015;-62
2023/05/16 03:15:54;;;;;;;0.52;0.52;;;;;;;26.19;28.67;100630.66;7396573;19;20021;-62
2023/05/16 03:18:20;;;;;;;1.00;0.70;;;;;;;26.38;28.42;100631.09;7392282;19;20021;-62
2023/05/16 03:20:47;;;;;;;0.30;0.30;;;;;;;26.48;27.57;100640.66;7393222;19;20014;-62
2023/05/16 03:23:13;;;;;;;1.85;0.88;;;;;;;26.47;28.00;100632.63;7394367;19;20459;-62
2023/05/16 03:25:39;;;;;;;0.40;0.40;;;;;;;26.29;27.60;100645.94;7396030;19;20025;-62
2023/05/16 03:28:06;;;;;;;0.60;0.60;;;;;;;26.25;27.75;100639.81;7395772;19;20787;-62
2023/05/16 03:30:33;;;;;;;0.57;0.57;;;;;;;26.28;28.00;100632.97;7391880;19;20045;-62
2023/05/16 03:33:00;;;;;;;0.80;0.80;;;;;;;26.53;27.37;100631.13;7396339;19;20014;-62
2023/05/16 03:35:33;;;;;;;0.38;0.38;;;;;;;26.94;27.48;100624.34;7394285;19;20458;-62
2023/05/16 03:37:59;;;;;;;0.55;0.55;;;;;;;27.11;27.28;100621.69;7391738;19;20592;-62
2023/05/16 03:40:25;;;;;;;1.38;1.02;;;;;;;26.82;27.54;100629.69;7395427;19;20031;-62
2023/05/16 03:42:51;;;;;;;0.45;0.40;;;;;;;26.42;27.75;100625.81;7393392;19;20028;-62
2023/05/16 03:45:17;;;;;;;0.75;0.75;;;;;;;26.24;27.45;100624.03;7393333;19;20371;-63
2023/05/16 03:47:44;;;;;;;0.40;0.40;;;;;;;26.03;27.62;100626.22;7392497;19;20489;-62
2023/05/16 03:50:10;;;;;;;0.55;0.55;;;;;;;26.32;27.46;100627.66;7393632;19;20027;-62
2023/05/16 03:52:36;;;;;;;0.63;0.63;;;;;;;26.39;27.49;100618.34;7396559;19;20025;-62
2023/05/16 03:55:04;;;;;;;5.50;0.82;;;;;;;26.43;27.59;100630.16;7391870;19;20074;-62
2023/05/16 03:57:31;;;;;;;1.60;1.02;;;;;;;26.56;27.80;100626.38;7391965;19;20818;-62
2023/05/16 03:59:57;;;;;;;1.55;0.75;;;;;;;26.66;27.80;100627.38;7393505;19;20019;-63
2023/05/16 04:02:23;;;;;;;3.03;0.63;;;;;;;26.85;27.43;100622.06;7396129;19;20040;-62
2023/05/16 04:04:50;;;;;;;5.05;1.05;;;;;;;26.75;27.50;100633.28;7397654;19;20018;-62
2023/05/16 04:07:16;;;;;;;0.30;0.30;;;;;;;26.90;27.64;100630.44;7392986;19;20018;-62
2023/05/16 04:09:42;;;;;;;0.40;0.40;;;;;;;26.70;27.82;100633.47;7393948;19;20010;-61
2023/05/16 04:12:08;;;;;;;0.38;0.38;;;;;;;26.65;27.86;100634.41;7394118;19;20015;-61
2023/05/16 04:14:34;;;;;;;0.30;0.30;;;;;;;26.60;27.46;100635.34;7393168;19;20082;-62
2023/05/16 04:17:00;;;;;;;0.90;0.90;;;;;;;26.50;27.72;100649.44;7394316;19;20010;-62
2023/05/16 04:19:26;;;;;;;0.32;0.32;;;;;;;26.66;27.71;100639.53;7392495;19;20014;-61
2023/05/16 04:21:53;;;;;;;0.57;0.57;;;;;;;27.10;27.55;100642.25;7393635;19;20015;-62
2023/05/16 04:24:19;;;;;;;1.20;1.10;;;;;;;26.92;27.17;100644.94;7395321;19;20070;-62
2023/05/16 04:26:45;;;;;;;0.63;0.63;;;;;;;26.90;27.69;100641.88;7391129;19;20027;-62
2023/05/16 04:29:13;;;;;;;0.43;0.43;;;;;;;26.64;27.77;100641.47;7392761;19;20108;-62
2023/05/16 04:31:39;;;;;;;0.50;0.50;;;;;;;26.58;27.61;100641.63;7394775;19;20015;-62
2023/05/16 04:34:05;;;;;;;0.45;0.45;;;;;;;26.53;27.97;100641.81;7395318;19;20018;-62
2023/05/16 04:36:31;;;;;;;0.57;0.57;;;;;;;26.71;28.03;100641.44;7392418;19;20011;-61
2023/05/16 04:38:58;;;;;;;0.20;0.20;;;;;;;26.61;27.98;100643.34;7391879;19;20019;-61
2023/05/16 04:41:24;;;;;;;8.25;1.00;;;;;;;26.73;27.80;100655.97;7388695;19;20018;-61
2023/05/16 04:43:50;;;;;;;0.68;0.68;;;;;;;27.00;27.53;100648.56;7392892;19;20011;-61
2023/05/16 04:46:16;;;;;;;0.50;0.50;;;;;;;27.13;27.40;100646.84;7392899;19;20352;-61
2023/05/16 04:48:43;;;;;;;0.55;0.43;;;;;;;27.24;27.73;100646.47;7393092;19;20043;-62
2023/05/16 04:51:09;;;;;;;8.60;0.90;;;;;;;27.26;28.00;100643.78;7392061;19;20014;-62
2023/05/16 04:53:35;;;;;;;3.40;1.05;;;;;;;27.45;27.93;100641.31;7391960;19;20019;-62
2023/05/16 04:56:01;;;;;;;0.43;0.43;;;;;;;27.90;27.56;100638.31;7393711;19;20020;-62
2023/05/16 04:58:27;;;;;;;0.50;0.50;;;;;;;27.83;27.31;100632.63;7399049;19;20033;-61
2023/05/16 05:00:54;;;;;;;0.60;0.60;;;;;;;27.83;27.44;100636.22;7400875;19;20038;-62
2023/05/16 05:03:20;;;;;;;0.50;0.50;;;;;;;27.86;27.75;100637.94;7401435;19;20014;-62
2023/05/16 05:05:47;;;;;;;1.25;0.77;;;;;;;27.79;27.58;100644.44;7398752;19;20015;-62
2023/05/16 05:08:14;;;;;;;1.08;1.00;;;;;;;27.71;27.57;100638.00;7398881;19;20392;-62
2023/05/16 05:10:40;;;;;;;1.00;0.30;;;;;;;28.08;27.49;100640.00;7398487;19;20074;-62
2023/05/16 05:13:07;;;;;;;1.90;0.80;;;;;;;28.19;27.28;100648.16;7400694;19;20089;-62
2023/05/16 05:15:33;;;;;;;0.47;0.47;;;;;;;28.22;27.12;100646.97;7397979;19;20018;-62
2023/05/16 05:17:59;;;;;;;2.28;0.40;;;;;;;28.18;27.37;100646.63;7398580;19;20021;-62
2023/05/16 05:20:25;;;;;;;0.43;0.30;;;;;;;28.04;27.42;100642.50;7396988;19;20364;-62
2023/05/16 05:22:52;;;;;;;1.15;0.60;;;;;;;28.06;27.49;100656.22;7400367;19;20027;-62
2023/05/16 05:25:18;;;;;;;0.40;0.40;;;;;;;28.08;27.23;100651.44;7395228;19;20037;-62
2023/05/16 05:27:44;;;;;;;0.57;0.57;;;;;;;28.03;27.22;100652.41;7396607;19;20014;-62
2023/05/16 05:30:10;;;;;;;0.80;0.80;;;;;;;27.70;27.53;100653.63;7398209;19;20021;-62
2023/05/16 05:32:37;;;;;;;0.47;0.47;;;;;;;27.59;28.03;100660.53;7399768;19;20022;-62
2023/05/16 05:35:03;;;;;;;1.17;0.38;;;;;;;27.72;27.90;100660.31;7401316;19;20022;-62
2023/05/16 05:37:30;;;;;;;0.55;0.50;;;;;;;27.16;28.35;100660.00;7397496;19;20007;-61
2023/05/16 05:39:56;;;;;;;0.63;0.63;;;;;;;26.54;29.24;100674.75;7395394;19;20027;-62
2023/05/16 05:42:22;;;;;;;0.32;0.32;;;;;;;26.91;28.85;100666.28;7399195;19;20015;-62
2023/05/16 05:44:48;;;;;;;1.20;1.20;;;;;;;27.22;28.99;100666.28;7395852;19;20018;-62
2023/05/16 05:47:15;;;;;;;0.60;0.60;;;;;;;27.35;29.30;100658.31;7396024;19;20021;-62
2023/05/16 05:49:41;;;;;;;0.75;0.75;;;;;;;27.43;28.83;100675.44;7398755;19;20014;-61
2023/05/16 05:52:08;;;;;;;3.22;1.17;;;;;;;27.24;29.38;100670.09;7397252;19;20409;-62
2023/05/16 05:54:34;;;;;;;0.35;0.35;;;;;;;27.32;29.42;100665.13;7401203;19;20014;-62
2023/05/16 05:57:00;;;;;;;0.57;0.57;;;;;;;27.62;28.97;100673.72;7395801;19;20022;-62
2023/05/16 05:59:26;;;;;;;0.85;0.45;;;;;;;27.52;29.55;100686.31;7399078;19;20043;-62
2023/05/16 06:01:53;;;;;;;0.30;0.30;;;;;;;27.66;29.04;100676.16;7396600;19;20455;-62
2023/05/16 06:04:19;;;;;;;1.77;0.52;;;;;;;27.89;29.07;100676.13;7399577;19;20018;-62
2023/05/16 06:06:45;;;;;;;1.65;1.00;;;;;;;28.23;29.10;100682.91;7392857;19;20010;-62
2023/05/16 06:09:15;;;;;;;0.43;0.43;;;;;;;28.80;29.30;100682.22;7399203;19;20018;-62
2023/05/16 06:11:44;;;;;;;0.65;0.65;;;;;;;29.06;29.12;100675.91;7397778;19;20010;-62
2023/05/16 06:14:11;;;;;;;0.40;0.40;;;;;;;29.01;29.92;100674.81;7396318;19;20018;-62
2023/05/16 06:16:39;;;;;;;7.20;0.68;;;;;;;29.54;29.58;100673.59;7394730;19;20021;-62
2023/05/16 06:19:05;;;;;;;0.90;0.85;;;;;;;29.79;29.57;100672.22;7396347;19;20037;-62
2023/05/16 06:21:32;;;;;;;0.65;0.65;;;;;;;29.47;30.74;100680.94;7392776;19;20050;-62
2023/05/16 06:23:58;;;;;;;0.57;0.57;;;;;;;29.47;30.72;100680.94;7395671;19;20006;-62
2023/05/16 06:26:24;;;;;;;2.72;0.93;;;;;;;29.49;31.17;100681.13;7396014;19;20034;-61
2023/05/16 06:28:51;;;;;;;0.57;0.57;;;;;;;29.54;31.35;100680.09;7394430;19;20022;-61
2023/05/16 06:31:17;;;;;;;0.63;0.63;;;;;;;29.66;30.87;100686.88;7396863;19;20015;-61
2023/05/16 06:33:43;;;;;;;0.20;0.20;;;;;;;29.69;31.16;100682.06;7395831;19;20497;-62
2023/05/16 06:36:09;;;;;;;0.75;0.75;;;;;;;29.20;31.42;100691.50;7399885;19;20042;-62
2023/05/16 06:38:35;;;;;;;4.65;0.63;;;;;;;28.52;32.80;100698.41;7396008;19;20014;-61
2023/05/16 06:41:02;;;;;;;0.40;0.40;;;;;;;28.37;32.78;100701.34;7397705;19;20469;-62
2023/05/16 06:43:28;;;;;;;0.52;0.52;;;;;;;29.55;31.89;100700.94;7399044;19;20026;-62
2023/05/16 06:45:54;;;;;;;4.68;0.73;;;;;;;28.47;32.76;100701.50;7397588;19;20036;-62
2023/05/16 06:48:20;;;;;;;0.95;0.65;;;;;;;27.57;34.09;100711.13;7395218;19;20006;-62
2023/05/16 06:50:50;;;;;;;0.68;0.68;;;;;;;27.74;33.95;100702.69;7396367;19;20483;-62
2023/05/16 06:53:17;;;;;;;1.25;1.15;;;;;;;28.27;33.83;100702.53;7399787;19;20015;-62
2023/05/16 06:55:44;;;;;;;1.55;0.70;;;;;;;28.05;33.79;100700.53;7396186;19;20042;-62
2023/05/16 06:58:11;;;;;;;1.55;0.95;;;;;;;29.16;32.92;100699.75;7394964;19;20014;-61
2023/05/16 07:00:37;;;;;;;1.98;1.50;;;;;;;27.96;34.15;100710.44;7395022;19;20048;-60
2023/05/16 07:03:04;;;;;;;1.13;0.30;;;;;;;29.24;32.61;100706.19;7397421;19;20007;-61
2023/05/16 07:05:30;;;;;;;0.40;0.20;;;;;;;29.28;33.03;100708.66;7394885;19;20015;-61
2023/05/16 07:07:56;;;;;;;1.10;0.47;;;;;;;28.41;33.65;100716.03;7393889;19;20034;-61
2023/05/16 07:10:26;;;;;;;0.17;0.13;;;;;;;27.53;34.67;100719.31;7391884;19;20019;-62
2023/05/16 07:12:52;;;;;;;1.55;0.28;;;;;;;27.42;34.66;100719.69;7395827;19;20052;-62
2023/05/16 07:15:18;;;;;;;0.55;0.20;;;;;;;29.69;32.38;100714.38;7392876;19;20466;-63
2023/05/16 07:17:45;;;;;;;9.93;0.20;;;;;;;30.71;30.84;100719.34;7388395;19;20355;-62
2023/05/16 07:20:13;;;;;;;0.30;0.30;;;;;;;31.20;30.55;100709.63;7395314;19;20015;-63
2023/05/16 07:22:39;;;;;;;5.60;0.40;;;;;;;31.65;29.89;100716.72;7396661;19;20466;-63
2023/05/16 07:25:11;;;;;;;0.57;0.57;;;;;;;32.04;29.31;100717.56;7395364;19;20018;-62
2023/05/16 07:27:41;;;;;;;2.65;0.95;;;;;;;32.08;29.30;100717.84;7393933;19;20114;-62
2023/05/16 07:30:08;;;;;;;0.25;0.22;;;;;;;31.95;29.51;100721.19;7392603;19;20724;-62
2023/05/16 07:32:35;;;;;;;1.10;0.40;;;;;;;32.15;28.99;100722.72;7397581;19;20030;-62
2023/05/16 07:35:01;;;;;;;0.38;0.25;;;;;;;31.76;29.40;100727.66;7398250;19;20017;-62
2023/05/16 07:37:27;;;;;;;4.28;0.20;;;;;;;31.66;29.37;100729.03;7393710;19;20455;-62
2023/05/16 07:39:53;;;;;;;0.43;0.43;;;;;;;31.80;29.06;100722.22;7393624;19;20018;-63
2023/05/16 07:42:19;;;;;;;0.20;0.20;;;;;;;31.56;29.29;100725.34;7395866;19;20027;-63
2023/05/16 07:44:46;;;;;;;5.20;0.70;;;;;;;31.51;29.44;100735.06;7393047;19;20002;-62
2023/05/16 07:47:12;;;;;;;2.80;0.95;;;;;;;31.64;29.36;100726.72;7393393;19;20025;-63
2023/05/16 07:49:39;;;;;;;0.95;0.30;;;;;;;31.52;29.27;100725.03;7393697;19;20031;-63
2023/05/16 07:52:05;;;;;;;0.32;0.32;;;;;;;31.47;29.33;100734.75;7394512;19;20010;-63
2023/05/16 07:54:34;;;;;;;0.75;0.45;;;;;;;31.51;29.30;100730.06;7393118;19;20359;-63
2023/05/16 07:57:01;;;;;;;5.18;0.95;;;;;;;31.58;29.29;100729.13;7390874;19;20006;-62
2023/05/16 07:59:27;;;;;;;0.17;0.10;;;;;;;31.84;28.99;100739.03;7393100;19;20132;-63
2023/05/16 08:01:55;;;;;;;2.30;0.30;;;;;;;32.41;28.57;100732.56;7395031;19;20352;-63
2023/05/16 08:04:21;;;;;;;2.83;0.75;;;;;;;32.69;28.25;100735.44;7396767;19;20019;-60
2023/05/16 08:06:48;;;;;;;1.20;0.40;;;;;;;32.71;28.26;100731.94;7396520;19;20018;-61
2023/05/16 08:09:14;;;;;;;4.90;0.45;;;;;;;32.89;28.67;100731.13;7393307;19;20070;-61
2023/05/16 08:11:44;;;;;;;0.20;0.20;;;;;;;32.73;28.48;100729.94;7393700;19;20007;-60
2023/05/16 08:14:10;;;;;;;1.75;0.85;;;;;;;32.88;28.72;100726.72;7392847;19;20470;-60
2023/05/16 08:16:36;;;;;;;0.63;0.32;;;;;;;32.85;29.27;100730.81;7392313;19;20015;-60
2023/05/16 08:19:03;;;;;;;1.38;0.30;;;;;;;33.39;28.85;100731.09;7392037;19;20342;-60
2023/05/16 08:21:30;;;;;;;7.63;1.40;;;;;;;33.91;28.53;100728.22;7391444;19;20010;-60
2023/05/16 08:23:56;;;;;;;6.10;0.50;;;;;;;33.98;27.48;100727.22;7390480;19;20347;-60
2023/05/16 08:26:23;;;;;;;1.33;1.08;;;;;;;33.91;27.81;100727.44;7392027;19;20023;-60
2023/05/16 08:28:49;;;;;;;0.52;0.40;;;;;;;33.45;27.83;100730.75;7393211;19;20010;-61
2023/05/16 08:31:15;;;;;;;1.30;0.40;;;;;;;33.47;27.88;100730.91;7400921;19;20017;-60
2023/05/16 08:33:42;;;;;;;1.63;0.77;;;;;;;33.22;27.67;100739.25;7400461;19;20006;-60
2023/05/16 08:36:11;;;;;;;1.67;0.38;;;;;;;32.82;27.97;100734.94;7399826;19;20018;-60
2023/05/16 08:38:37;;;;;;;16.65;2.13;;;;;;;32.76;28.11;100734.50;7399628;19;20025;-61
2023/05/16 08:41:03;;;;;;;0.73;0.52;;;;;;;32.68;28.21;100727.41;7397147;19;20014;-60
2023/05/16 08:43:29;;;;;;;2.72;0.65;;;;;;;32.46;28.30;100728.63;7404957;19;20011;-61
2023/05/16 08:45:56;;;;;;;5.32;1.00;;;;;;;32.38;28.67;100728.03;7399341;19;20070;-60
2023/05/16 08:48:23;;;;;;;3.85;0.40;;;;;;;32.62;28.37;100732.69;7399989;19;20343;-60
2023/05/16 08:50:49;;;;;;;0.25;0.20;;;;;;;32.69;28.33;100741.19;7400522;19;20013;-60
2023/05/16 08:53:24;;;;;;;5.55;0.93;;;;;;;32.34;28.49;100728.47;7404421;19;20082;-61
2023/05/16 08:55:51;;;;;;;1.65;0.60;;;;;;;32.33;28.46;100726.19;7399589;19;20014;-61
2023/05/16 08:58:19;;;;;;;0.32;0.32;;;;;;;32.64;28.68;100730.72;7398782;19;20023;-61
2023/05/16 09:00:45;;;;;;;1.50;1.02;;;;;;;33.19;28.29;100729.66;7400931;19;20019;-60
2023/05/16 09:03:12;;;;;;;0.82;0.50;;;;;;;33.73;27.88;100726.97;7402545;19;20011;-61
2023/05/16 09:05:39;;;;;;;1.95;0.93;;;;;;;33.91;27.36;100734.00;7398313;19;20018;-61
2023/05/16 09:08:06;;;;;;;1.60;0.82;;;;;;;33.96;27.14;100732.88;7397831;19;20034;-61
2023/05/16 09:10:32;;;;;;;0.75;0.75;;;;;;;34.33;26.89;100731.06;7398013;19;20011;-61
2023/05/16 09:12:58;;;;;;;0.88;0.43;;;;;;;34.67;26.89;100720.25;7399958;19;20019;-61
2023/05/16 09:15:31;;;;;;;1.48;0.85;;;;;;;34.68;26.62;100721.75;7398459;19;20014;-61
2023/05/16 09:17:59;;;;;;;1.13;0.65;;;;;;;34.85;26.39;100719.28;7399473;19;20013;-61
2023/05/16 09:20:26;;;;;;;2.45;1.10;;;;;;;34.92;26.49;100723.31;7397082;19;20463;-61
2023/05/16 09:22:56;;;;;;;2.38;1.00;;;;;;;35.40;26.02;100719.84;7401382;19;20011;-61
2023/05/16 09:25:25;;;;;;;3.88;0.85;;;;;;;35.87;25.70;100715.50;7398210;19;20356;-60
2023/05/16 09:27:55;;;;;;;4.90;0.80;;;;;;;36.13;25.08;100713.41;7397889;19;20011;-60
2023/05/16 09:30:26;;;;;;;1.10;0.60;;;;;;;36.36;25.52;100719.88;7397090;19;20011;-61
2023/05/16 09:32:52;;;;;;;1.73;0.55;;;;;;;36.57;24.97;100716.00;7401620;19;20074;-61
2023/05/16 09:35:20;;;;;;;3.50;0.75;;;;;;;36.39;24.95;100717.84;7397686;19;20003;-61
2023/05/16 09:37:47;;;;;;;3.88;0.50;;;;;;;36.41;24.66;100709.25;7397021;19;20006;-61
2023/05/16 09:40:14;;;;;;;2.67;1.17;;;;;;;36.62;25.08;100714.84;7395778;19;20007;-61
2023/05/16 09:42:45;;;;;;;1.88;0.85;;;;;;;36.73;24.65;100711.13;7395069;19;20038;-61
2023/05/16 09:45:12;;;;;;;4.38;1.48;;;;;;;36.82;24.68;100718.88;7397285;19;20062;-61
2023/05/16 09:47:45;;;;;;;9.85;1.08;;;;;;;36.74;24.40;100721.34;7397145;19;20011;-61
2023/05/16 09:50:17;;;;;;;3.10;0.25;;;;;;;36.48;24.08;100714.03;7398266;19;20010;-61
2023/05/16 09:52:43;;;;;;;6.90;0.82;;;;;;;23.35;38.25;100734.84;7400601;19;20019;-61
2023/05/16 09:55:09;;;;;;;8.57;1.45;;;;;;;23.66;41.37;100736.88;7395423;19;20025;-61
2023/05/16 09:57:38;;;;;;;3.53;0.20;;;;;;;22.18;43.44;100738.63;7395655;19;20025;-61
2023/05/16 10:00:10;;;;;;;1.25;0.45;;;;;;;31.72;30.85;100732.34;7397031;19;20475;-61
2023/05/16 10:02:40;;;;;;;1.10;0.52;;;;;;;34.12;28.33;100736.13;7400023;19;20041;-61
2023/05/16 10:05:06;;;;;;;1.90;0.47;;;;;;;34.24;27.63;100731.19;7400713;19;20015;-60
2023/05/16 10:07:33;;;;;;;15.48;0.88;;;;;;;34.20;27.36;100722.19;7394655;19;20328;-61
2023/05/16 10:10:06;;;;;;;1.08;0.80;;;;;;;34.46;27.05;100723.94;7396585;19;20393;-60
2023/05/16 10:12:33;;;;;;;2.13;1.20;;;;;;;34.91;26.57;100721.81;7398663;19;20080;-61
2023/05/16 10:15:04;;;;;;;5.32;0.85;;;;;;;35.37;26.56;100721.84;7395373;19;20021;-60
2023/05/16 10:17:33;;;;;;;6.55;1.10;;;;;;;35.37;26.00;100721.84;7394446;19;20006;-60
2023/05/16 10:20:04;;;;;;;7.95;0.80;;;;;;;35.16;26.15;100722.00;7395751;19;20014;-60
2023/05/16 10:22:34;;;;;;;1.00;0.28;;;;;;;36.65;25.44;100722.28;7397897;19;20018;-60
2023/05/16 10:25:24;;;;;;;2.60;0.63;;;;;;;37.11;24.47;100716.19;7395629;19;20084;-61
2023/05/16 10:27:51;;;;;;;3.58;0.68;;;;;;;36.94;24.76;100724.63;7395987;19;20446;-61
2023/05/16 10:30:18;;;;;;;3.47;0.73;;;;;;;36.58;23.95;100729.13;7396595;19;20444;-61
2023/05/16 10:32:45;;;;;;;7.00;0.55;;;;;;;36.95;24.42;100724.00;7400375;19;20011;-61
2023/05/16 10:35:11;;;;;;;4.55;0.47;;;;;;;37.08;24.27;100723.25;7399711;19;20014;-61
2023/05/16 10:37:39;;;;;;;3.60;0.40;;;;;;;37.19;24.16;100716.59;7395315;19;20010;-61
2023/05/16 10:40:07;;;;;;;3.22;0.32;;;;;;;37.18;23.68;100720.91;7395195;19;20019;-61
2023/05/16 10:42:33;;;;;;;2.72;0.80;;;;;;;37.01;24.03;100717.78;7398777;19;20026;-61
2023/05/16 10:45:19;;;;;;;0.68;0.32;;;;;;;36.95;23.64;100721.09;7396623;19;20377;-61
2023/05/16 10:47:58;;;;;;;6.03;1.20;;;;;;;35.02;25.21;100715.31;7396116;19;20011;-61
2023/05/16 10:50:39;;;;;;;1.63;0.38;;;;;;;36.42;24.39;100710.78;7397471;19;20761;-64
2023/05/16 10:53:34;;;;;;;4.57;1.10;;;;;;;37.55;23.94;100705.44;7398622;19;20073;-65
2023/05/16 10:56:00;;;;;;;1.23;0.20;;;;;;;38.15;23.22;100713.63;7395243;19;20052;-65
2023/05/16 10:58:32;;;;;;;1.42;0.52;;;;;;;37.72;23.13;100720.19;7394436;19;20021;-66
2023/05/16 11:01:17;;;;;;;1.00;0.63;;;;;;;37.91;23.39;100718.97;7398533;19;20020;-66
2023/05/16 11:03:56;;;;;;;0.60;0.30;;;;;;;37.90;23.34;100717.50;7397980;19;20022;-65
2023/05/16 11:06:23;;;;;;;3.47;0.50;;;;;;;37.72;22.86;100719.44;7394057;19;20371;-66
2023/05/16 11:09:12;;;;;;;5.07;1.30;;;;;;;37.42;22.76;100720.75;7394058;19;20070;-66
2023/05/16 11:11:47;;;;;;;1.15;0.80;;;;;;;37.42;22.95;100721.50;7396686;19;20017;-64
2023/05/16 11:14:31;;;;;;;2.47;0.85;;;;;;;37.52;23.01;100724.16;7395355;19;20024;-66
2023/05/16 11:17:25;;;;;;;2.42;0.57;;;;;;;37.91;22.50;100730.63;7395196;19;20074;-64
2023/05/16 11:19:57;;;;;;;8.23;1.13;;;;;;;38.08;22.21;100732.94;7396580;19;20017;-65
2023/05/16 11:22:25;;;;;;;1.92;0.40;;;;;;;38.33;22.93;100714.59;7396758;19;20015;-65
2023/05/16 11:25:01;;;;;;;1.60;0.30;;;;;;;38.33;21.91;100732.06;7394191;19;20021;-65
2023/05/16 11:27:31;;;;;;;4.22;1.30;;;;;;;38.28;22.02;100725.28;7394684;19;20015;-64
2023/05/16 11:30:03;;;;;;;0.73;0.30;;;;;;;38.07;21.90;100737.28;7394557;19;20010;-65